sensor_id;sensor_type;location;lat;lon;timestamp;temperature;humidity
20384;DHT22;46458;50.966;7.002;2023-07-13T00:00:38;19.90;99.90
20384;DHT22;46458;50.966;7.002;2023-07-13T00:03:07;19.90;99.90
20384;DHT22;46458;50.966;7.002;2023-07-13T00:05:39;19.80;99.90
20384;DHT22;46458;50.966;7.002;2023-07-13T00:08:12;19.80;99.90
20384;DHT22;46458;50.966;7.002;2023-07-13T00:10:44;19.90;99.90
20384;DHT22;46458;50.966;7.002;2023-07-13T00:13:12;19.80;99.90
20384;DHT22;46458;50.966;7.002;2023-07-13T00:15:43;19.80;99.90
20384;DHT22;46458;50.966;7.002;2023-07-13T00:18:15;19.70;99.90
20384;DHT22;46458;50.966;7.002;2023-07-13T00:20:44;19.70;99.90
20384;DHT22;46458;50.966;7.002;2023-07-13T00:23:13;19.90;99.90
20384;DHT22;46458;50.966;7.002;2023-07-13T00:25:45;19.70;99.90
20384;DHT22;46458;50.966;7.002;2023-07-13T00:28:16;19.70;99.90
20384;DHT22;46458;50.966;7.002;2023-07-13T00:30:45;19.80;99.90
20384;DHT22;46458;50.966;7.002;2023-07-13T00:33:14;19.70;99.90
20384;DHT22;46458;50.966;7.002;2023-07-13T00:35:46;19.50;99.90
20384;DHT22;46458;50.966;7.002;2023-07-13T00:38:15;19.50;99.90
20384;DHT22;46458;50.966;7.002;2023-07-13T00:40:46;19.50;99.90
20384;DHT22;46458;50.966;7.002;2023-07-13T00:43:20;19.60;99.90
20384;DHT22;46458;50.966;7.002;2023-07-13T00:46:18;19.70;99.90
20384;DHT22;46458;50.966;7.002;2023-07-13T00:48:50;19.40;99.90
20384;DHT22;46458;50.966;7.002;2023-07-13T00:51:24;19.60;99.90
20384;DHT22;46458;50.966;7.002;2023-07-13T00:53:57;19.40;99.90
20384;DHT22;46458;50.966;7.002;2023-07-13T00:56:29;19.50;99.90
20384;DHT22;46458;50.966;7.002;2023-07-13T00:59:00;19.50;99.90
20384;DHT22;46458;50.966;7.002;2023-07-13T01:01:31;19.40;99.90
20384;DHT22;46458;50.966;7.002;2023-07-13T01:04:00;19.40;99.90
20384;DHT22;46458;50.966;7.002;2023-07-13T01:06:29;19.30;99.90
20384;DHT22;46458;50.966;7.002;2023-07-13T01:08:59;19.30;99.90
20384;DHT22;46458;50.966;7.002;2023-07-13T01:11:31;18.80;99.90
20384;DHT22;46458;50.966;7.002;2023-07-13T01:14:00;19.20;99.90
20384;DHT22;46458;50.966;7.002;2023-07-13T01:19:11;19.20;99.90
20384;DHT22;46458;50.966;7.002;2023-07-13T01:21:43;19.20;99.90
20384;DHT22;46458;50.966;7.002;2023-07-13T01:24:12;19.10;99.90
20384;DHT22;46458;50.966;7.002;2023-07-13T01:26:44;19.20;99.90
20384;DHT22;46458;50.966;7.002;2023-07-13T01:29:12;19.10;99.90
20384;DHT22;46458;50.966;7.002;2023-07-13T01:31:44;19.10;99.90
20384;DHT22;46458;50.966;7.002;2023-07-13T01:34:15;19.10;99.90
20384;DHT22;46458;50.966;7.002;2023-07-13T01:36:46;19.10;99.90
20384;DHT22;46458;50.966;7.002;2023-07-13T01:39:16;18.90;99.90
20384;DHT22;46458;50.966;7.002;2023-07-13T01:41:44;18.90;99.90
20384;DHT22;46458;50.966;7.002;2023-07-13T01:44:13;18.90;99.90
20384;DHT22;46458;50.966;7.002;2023-07-13T01:46:42;18.90;99.90
20384;DHT22;46458;50.966;7.002;2023-07-13T01:49:11;18.80;99.90
20384;DHT22;46458;50.966;7.002;2023-07-13T01:51:40;18.80;99.90
20384;DHT22;46458;50.966;7.002;2023-07-13T01:54:13;18.80;99.90
20384;DHT22;46458;50.966;7.002;2023-07-13T01:56:44;18.70;99.90
20384;DHT22;46458;50.966;7.002;2023-07-13T01:59:13;18.80;99.90
20384;DHT22;46458;50.966;7.002;2023-07-13T02:01:42;18.70;99.90
20384;DHT22;46458;50.966;7.002;2023-07-13T02:04:11;18.80;99.90
20384;DHT22;46458;50.966;7.002;2023-07-13T02:06:42;18.80;99.90
20384;DHT22;46458;50.966;7.002;2023-07-13T02:09:17;18.70;99.90
20384;DHT22;46458;50.966;7.002;2023-07-13T02:11:48;18.80;99.90
20384;DHT22;46458;50.966;7.002;2023-07-13T02:14:17;18.80;99.90
20384;DHT22;46458;50.966;7.002;2023-07-13T02:16:46;18.80;99.90
20384;DHT22;46458;50.966;7.002;2023-07-13T02:19:18;18.70;99.90
20384;DHT22;46458;50.966;7.002;2023-07-13T02:21:47;18.80;99.90
20384;DHT22;46458;50.966;7.002;2023-07-13T02:24:19;18.80;99.90
20384;DHT22;46458;50.966;7.002;2023-07-13T02:26:48;18.80;99.90
20384;DHT22;46458;50.966;7.002;2023-07-13T02:29:20;18.90;99.90
20384;DHT22;46458;50.966;7.002;2023-07-13T02:31:49;18.80;99.90
20384;DHT22;46458;50.966;7.002;2023-07-13T02:34:18;18.70;99.90
20384;DHT22;46458;50.966;7.002;2023-07-13T02:36:47;18.40;99.90
20384;DHT22;46458;50.966;7.002;2023-07-13T02:39:15;18.50;99.90
20384;DHT22;46458;50.966;7.002;2023-07-13T02:41:47;18.60;99.90
20384;DHT22;46458;50.966;7.002;2023-07-13T02:44:16;18.80;99.90
20384;DHT22;46458;50.966;7.002;2023-07-13T02:46:45;18.70;99.90
20384;DHT22;46458;50.966;7.002;2023-07-13T02:49:17;18.70;99.90
20384;DHT22;46458;50.966;7.002;2023-07-13T02:51:45;18.70;99.90
20384;DHT22;46458;50.966;7.002;2023-07-13T02:54:14;18.70;99.90
20384;DHT22;46458;50.966;7.002;2023-07-13T02:56:43;18.60;99.90
20384;DHT22;46458;50.966;7.002;2023-07-13T02:59:15;18.50;99.90
20384;DHT22;46458;50.966;7.002;2023-07-13T03:01:44;18.50;99.90
20384;DHT22;46458;50.966;7.002;2023-07-13T03:04:13;18.50;99.90
20384;DHT22;46458;50.966;7.002;2023-07-13T03:06:45;18.50;99.90
20384;DHT22;46458;50.966;7.002;2023-07-13T03:09:18;18.60;99.90
20384;DHT22;46458;50.966;7.002;2023-07-13T03:11:53;18.50;99.90
20384;DHT22;46458;50.966;7.002;2023-07-13T03:14:33;18.30;99.90
20384;DHT22;46458;50.966;7.002;2023-07-13T03:17:05;18.30;99.90
20384;DHT22;46458;50.966;7.002;2023-07-13T03:19:37;18.20;99.90
20384;DHT22;46458;50.966;7.002;2023-07-13T03:22:06;18.50;99.90
20384;DHT22;46458;50.966;7.002;2023-07-13T03:24:37;18.10;99.90
20384;DHT22;46458;50.966;7.002;2023-07-13T03:27:06;17.70;99.90
20384;DHT22;46458;50.966;7.002;2023-07-13T03:29:41;18.30;99.90
20384;DHT22;46458;50.966;7.002;2023-07-13T03:32:14;18.20;99.90
20384;DHT22;46458;50.966;7.002;2023-07-13T03:34:46;18.20;99.90
20384;DHT22;46458;50.966;7.002;2023-07-13T03:37:15;18.20;99.90
20384;DHT22;46458;50.966;7.002;2023-07-13T03:39:44;18.20;99.90
20384;DHT22;46458;50.966;7.002;2023-07-13T03:42:13;18.10;99.90
20384;DHT22;46458;50.966;7.002;2023-07-13T03:44:45;18.20;99.90
20384;DHT22;46458;50.966;7.002;2023-07-13T03:47:18;18.20;99.90
20384;DHT22;46458;50.966;7.002;2023-07-13T03:49:50;18.10;99.90
20384;DHT22;46458;50.966;7.002;2023-07-13T03:52:20;18.00;99.90
20384;DHT22;46458;50.966;7.002;2023-07-13T03:54:49;18.40;99.90
20384;DHT22;46458;50.966;7.002;2023-07-13T03:57:18;18.10;99.90
20384;DHT22;46458;50.966;7.002;2023-07-13T03:59:50;18.00;99.90
20384;DHT22;46458;50.966;7.002;2023-07-13T04:02:21;17.90;99.90
20384;DHT22;46458;50.966;7.002;2023-07-13T04:04:50;17.80;99.90
20384;DHT22;46458;50.966;7.002;2023-07-13T04:07:19;17.30;99.90
20384;DHT22;46458;50.966;7.002;2023-07-13T04:09:48;17.90;99.90
20384;DHT22;46458;50.966;7.002;2023-07-13T04:12:16;18.10;99.90
20384;DHT22;46458;50.966;7.002;2023-07-13T04:14:45;17.90;99.90
20384;DHT22;46458;50.966;7.002;2023-07-13T04:17:23;17.90;99.90
20384;DHT22;46458;50.966;7.002;2023-07-13T04:19:54;17.80;99.90
20384;DHT22;46458;50.966;7.002;2023-07-13T04:22:23;17.70;99.90
20384;DHT22;46458;50.966;7.002;2023-07-13T04:24:52;17.70;99.90
20384;DHT22;46458;50.966;7.002;2023-07-13T04:27:21;17.70;99.90
20384;DHT22;46458;50.966;7.002;2023-07-13T04:29:50;17.80;99.90
20384;DHT22;46458;50.966;7.002;2023-07-13T04:32:21;18.20;99.90
20384;DHT22;46458;50.966;7.002;2023-07-13T04:34:53;17.90;99.90
20384;DHT22;46458;50.966;7.002;2023-07-13T04:37:23;17.70;99.90
20384;DHT22;46458;50.966;7.002;2023-07-13T04:39:55;17.80;99.90
20384;DHT22;46458;50.966;7.002;2023-07-13T04:42:26;17.80;99.90
20384;DHT22;46458;50.966;7.002;2023-07-13T04:44:55;17.70;99.90
20384;DHT22;46458;50.966;7.002;2023-07-13T04:47:33;17.80;99.90
20384;DHT22;46458;50.966;7.002;2023-07-13T04:50:02;17.80;99.90
20384;DHT22;46458;50.966;7.002;2023-07-13T04:52:31;17.80;99.90
20384;DHT22;46458;50.966;7.002;2023-07-13T04:55:00;18.00;99.90
20384;DHT22;46458;50.966;7.002;2023-07-13T04:57:29;17.80;99.90
20384;DHT22;46458;50.966;7.002;2023-07-13T05:00:01;17.80;99.90
20384;DHT22;46458;50.966;7.002;2023-07-13T05:02:34;18.00;99.90
20384;DHT22;46458;50.966;7.002;2023-07-13T05:05:04;17.70;99.90
20384;DHT22;46458;50.966;7.002;2023-07-13T05:07:33;17.70;99.90
20384;DHT22;46458;50.966;7.002;2023-07-13T05:10:02;17.80;99.90
20384;DHT22;46458;50.966;7.002;2023-07-13T05:12:35;17.90;99.90
20384;DHT22;46458;50.966;7.002;2023-07-13T05:15:05;17.70;99.90
20384;DHT22;46458;50.966;7.002;2023-07-13T05:17:36;17.80;99.90
20384;DHT22;46458;50.966;7.002;2023-07-13T05:20:08;18.00;99.90
20384;DHT22;46458;50.966;7.002;2023-07-13T05:22:37;18.00;99.90
20384;DHT22;46458;50.966;7.002;2023-07-13T05:25:07;18.10;99.90
20384;DHT22;46458;50.966;7.002;2023-07-13T05:27:36;18.10;99.90
20384;DHT22;46458;50.966;7.002;2023-07-13T05:30:06;18.20;99.90
20384;DHT22;46458;50.966;7.002;2023-07-13T05:32:42;18.10;99.90
20384;DHT22;46458;50.966;7.002;2023-07-13T05:35:11;18.10;99.90
20384;DHT22;46458;50.966;7.002;2023-07-13T05:37:40;18.10;99.90
20384;DHT22;46458;50.966;7.002;2023-07-13T05:40:09;18.00;99.90
20384;DHT22;46458;50.966;7.002;2023-07-13T05:42:40;18.20;99.90
20384;DHT22;46458;50.966;7.002;2023-07-13T05:45:12;18.20;99.90
20384;DHT22;46458;50.966;7.002;2023-07-13T05:47:43;18.20;99.90
20384;DHT22;46458;50.966;7.002;2023-07-13T05:50:12;18.40;99.90
20384;DHT22;46458;50.966;7.002;2023-07-13T05:52:41;18.30;99.90
20384;DHT22;46458;50.966;7.002;2023-07-13T05:55:10;18.30;99.90
20384;DHT22;46458;50.966;7.002;2023-07-13T05:57:40;18.40;99.90
20384;DHT22;46458;50.966;7.002;2023-07-13T06:00:10;18.40;99.90
20384;DHT22;46458;50.966;7.002;2023-07-13T06:02:43;18.40;99.90
20384;DHT22;46458;50.966;7.002;2023-07-13T06:05:11;18.30;99.90
20384;DHT22;46458;50.966;7.002;2023-07-13T06:07:41;18.30;99.90
20384;DHT22;46458;50.966;7.002;2023-07-13T06:10:10;18.20;99.90
20384;DHT22;46458;50.966;7.002;2023-07-13T06:12:42;18.20;99.90
20384;DHT22;46458;50.966;7.002;2023-07-13T06:15:11;18.20;99.90
20384;DHT22;46458;50.966;7.002;2023-07-13T06:17:43;18.20;99.90
20384;DHT22;46458;50.966;7.002;2023-07-13T06:20:12;18.20;99.90
20384;DHT22;46458;50.966;7.002;2023-07-13T06:22:41;18.20;99.90
20384;DHT22;46458;50.966;7.002;2023-07-13T06:25:13;18.20;99.90
20384;DHT22;46458;50.966;7.002;2023-07-13T06:27:42;18.30;99.90
20384;DHT22;46458;50.966;7.002;2023-07-13T06:30:12;18.50;99.90
20384;DHT22;46458;50.966;7.002;2023-07-13T06:32:43;18.40;99.90
20384;DHT22;46458;50.966;7.002;2023-07-13T06:35:15;18.50;99.90
20384;DHT22;46458;50.966;7.002;2023-07-13T06:37:44;18.40;99.90
20384;DHT22;46458;50.966;7.002;2023-07-13T06:40:16;18.40;99.90
20384;DHT22;46458;50.966;7.002;2023-07-13T06:42:45;18.30;99.90
20384;DHT22;46458;50.966;7.002;2023-07-13T06:45:14;18.30;99.90
20384;DHT22;46458;50.966;7.002;2023-07-13T06:47:45;18.20;99.90
20384;DHT22;46458;50.966;7.002;2023-07-13T06:50:15;18.20;99.90
20384;DHT22;46458;50.966;7.002;2023-07-13T06:52:44;18.30;99.90
20384;DHT22;46458;50.966;7.002;2023-07-13T06:55:12;18.40;99.90
20384;DHT22;46458;50.966;7.002;2023-07-13T06:57:41;18.60;99.90
20384;DHT22;46458;50.966;7.002;2023-07-13T07:00:14;18.70;99.90
20384;DHT22;46458;50.966;7.002;2023-07-13T07:02:47;18.60;99.90
20384;DHT22;46458;50.966;7.002;2023-07-13T07:05:16;18.80;99.90
20384;DHT22;46458;50.966;7.002;2023-07-13T07:07:47;18.70;99.90
20384;DHT22;46458;50.966;7.002;2023-07-13T07:10:16;18.80;99.90
20384;DHT22;46458;50.966;7.002;2023-07-13T07:12:45;18.90;99.90
20384;DHT22;46458;50.966;7.002;2023-07-13T07:15:18;18.90;99.90
20384;DHT22;46458;50.966;7.002;2023-07-13T07:17:49;18.70;99.90
20384;DHT22;46458;50.966;7.002;2023-07-13T07:20:18;18.70;99.90
20384;DHT22;46458;50.966;7.002;2023-07-13T07:22:47;18.70;99.90
20384;DHT22;46458;50.966;7.002;2023-07-13T07:25:16;18.80;99.90
20384;DHT22;46458;50.966;7.002;2023-07-13T07:27:45;18.80;99.90
20384;DHT22;46458;50.966;7.002;2023-07-13T07:30:17;19.00;99.90
20384;DHT22;46458;50.966;7.002;2023-07-13T07:32:51;19.10;99.90
20384;DHT22;46458;50.966;7.002;2023-07-13T07:35:20;19.00;99.90
20384;DHT22;46458;50.966;7.002;2023-07-13T07:37:49;19.20;99.90
20384;DHT22;46458;50.966;7.002;2023-07-13T07:40:17;19.40;99.90
20384;DHT22;46458;50.966;7.002;2023-07-13T07:42:47;19.60;99.90
20384;DHT22;46458;50.966;7.002;2023-07-13T07:45:20;19.50;99.90
20384;DHT22;46458;50.966;7.002;2023-07-13T07:47:52;19.60;99.90
20384;DHT22;46458;50.966;7.002;2023-07-13T07:50:24;19.70;99.90
20384;DHT22;46458;50.966;7.002;2023-07-13T07:52:54;19.70;99.90
20384;DHT22;46458;50.966;7.002;2023-07-13T07:55:23;19.70;99.90
20384;DHT22;46458;50.966;7.002;2023-07-13T07:57:53;19.80;99.90
20384;DHT22;46458;50.966;7.002;2023-07-13T08:00:27;20.00;99.90
20384;DHT22;46458;50.966;7.002;2023-07-13T08:03:00;19.80;99.90
20384;DHT22;46458;50.966;7.002;2023-07-13T08:05:28;19.90;99.90
20384;DHT22;46458;50.966;7.002;2023-07-13T08:08:00;20.00;99.90
20384;DHT22;46458;50.966;7.002;2023-07-13T08:10:29;20.10;99.90
20384;DHT22;46458;50.966;7.002;2023-07-13T08:12:58;19.80;99.90
20384;DHT22;46458;50.966;7.002;2023-07-13T08:15:27;20.10;99.90
20384;DHT22;46458;50.966;7.002;2023-07-13T08:17:55;20.10;99.90
20384;DHT22;46458;50.966;7.002;2023-07-13T08:20:27;20.20;99.90
20384;DHT22;46458;50.966;7.002;2023-07-13T08:22:55;20.30;99.90
20384;DHT22;46458;50.966;7.002;2023-07-13T08:25:24;20.20;99.90
20384;DHT22;46458;50.966;7.002;2023-07-13T08:27:53;20.20;99.90
20384;DHT22;46458;50.966;7.002;2023-07-13T08:30:22;20.40;99.90
20384;DHT22;46458;50.966;7.002;2023-07-13T08:32:53;20.40;99.90
20384;DHT22;46458;50.966;7.002;2023-07-13T08:35:22;20.40;99.90
20384;DHT22;46458;50.966;7.002;2023-07-13T08:37:54;20.50;99.90
20384;DHT22;46458;50.966;7.002;2023-07-13T08:40:25;20.50;99.90
20384;DHT22;46458;50.966;7.002;2023-07-13T08:42:55;20.60;99.90
20384;DHT22;46458;50.966;7.002;2023-07-13T08:45:30;20.60;99.90
20384;DHT22;46458;50.966;7.002;2023-07-13T08:48:04;20.60;99.90
20384;DHT22;46458;50.966;7.002;2023-07-13T08:50:35;20.80;99.90
20384;DHT22;46458;50.966;7.002;2023-07-13T08:53:13;21.00;99.90
20384;DHT22;46458;50.966;7.002;2023-07-13T08:55:43;20.90;99.90
20384;DHT22;46458;50.966;7.002;2023-07-13T08:58:16;21.20;99.90
20384;DHT22;46458;50.966;7.002;2023-07-13T09:00:51;21.40;99.90
20384;DHT22;46458;50.966;7.002;2023-07-13T09:03:23;21.50;99.90
20384;DHT22;46458;50.966;7.002;2023-07-13T09:05:54;21.70;99.90
20384;DHT22;46458;50.966;7.002;2023-07-13T09:08:47;21.60;99.90
20384;DHT22;46458;50.966;7.002;2023-07-13T09:11:30;21.40;99.90
20384;DHT22;46458;50.966;7.002;2023-07-13T09:14:06;21.30;99.90
20384;DHT22;46458;50.966;7.002;2023-07-13T09:16:39;21.00;99.90
20384;DHT22;46458;50.966;7.002;2023-07-13T09:19:20;20.90;99.90
20384;DHT22;46458;50.966;7.002;2023-07-13T09:21:51;20.90;99.90
20384;DHT22;46458;50.966;7.002;2023-07-13T09:24:36;20.80;99.90
20384;DHT22;46458;50.966;7.002;2023-07-13T09:27:22;20.90;99.90
20384;DHT22;46458;50.966;7.002;2023-07-13T09:30:02;20.90;99.90
20384;DHT22;46458;50.966;7.002;2023-07-13T09:32:31;21.30;99.90
20384;DHT22;46458;50.966;7.002;2023-07-13T09:35:01;21.70;99.90
20384;DHT22;46458;50.966;7.002;2023-07-13T09:37:31;21.70;99.90
20384;DHT22;46458;50.966;7.002;2023-07-13T09:40:08;21.30;99.90
20384;DHT22;46458;50.966;7.002;2023-07-13T09:42:40;21.40;99.90
20384;DHT22;46458;50.966;7.002;2023-07-13T09:45:08;21.40;99.90
20384;DHT22;46458;50.966;7.002;2023-07-13T09:47:39;21.60;99.90
20384;DHT22;46458;50.966;7.002;2023-07-13T09:50:15;21.70;99.90
20384;DHT22;46458;50.966;7.002;2023-07-13T09:52:47;21.80;99.90
20384;DHT22;46458;50.966;7.002;2023-07-13T09:55:31;22.00;99.90
20384;DHT22;46458;50.966;7.002;2023-07-13T09:58:04;21.70;99.90
20384;DHT22;46458;50.966;7.002;2023-07-13T10:00:35;22.00;99.90
20384;DHT22;46458;50.966;7.002;2023-07-13T10:03:13;22.10;99.90
20384;DHT22;46458;50.966;7.002;2023-07-13T10:05:45;22.40;99.90
20384;DHT22;46458;50.966;7.002;2023-07-13T10:08:18;22.10;99.90
20384;DHT22;46458;50.966;7.002;2023-07-13T10:10:58;22.40;99.90
20384;DHT22;46458;50.966;7.002;2023-07-13T10:13:34;22.80;99.90
20384;DHT22;46458;50.966;7.002;2023-07-13T10:16:04;23.30;99.90
20384;DHT22;46458;50.966;7.002;2023-07-13T10:18:39;23.50;99.90
20384;DHT22;46458;50.966;7.002;2023-07-13T10:21:14;23.50;99.90
20384;DHT22;46458;50.966;7.002;2023-07-13T10:23:45;23.50;99.90
20384;DHT22;46458;50.966;7.002;2023-07-13T10:26:22;23.40;99.90
20384;DHT22;46458;50.966;7.002;2023-07-13T10:28:54;23.90;99.90
20384;DHT22;46458;50.966;7.002;2023-07-13T10:31:24;24.10;99.90
20384;DHT22;46458;50.966;7.002;2023-07-13T10:33:53;24.30;99.90
20384;DHT22;46458;50.966;7.002;2023-07-13T10:36:32;24.20;99.90
20384;DHT22;46458;50.966;7.002;2023-07-13T10:39:04;24.40;99.90
20384;DHT22;46458;50.966;7.002;2023-07-13T10:41:40;24.20;99.90
20384;DHT22;46458;50.966;7.002;2023-07-13T10:44:18;24.20;99.90
20384;DHT22;46458;50.966;7.002;2023-07-13T10:46:52;23.60;99.90
20384;DHT22;46458;50.966;7.002;2023-07-13T10:49:26;23.80;99.90
20384;DHT22;46458;50.966;7.002;2023-07-13T10:51:55;23.70;99.90
20384;DHT22;46458;50.966;7.002;2023-07-13T10:54:27;24.00;99.90
20384;DHT22;46458;50.966;7.002;2023-07-13T10:57:15;24.00;99.90
20384;DHT22;46458;50.966;7.002;2023-07-13T10:59:48;23.90;99.90
20384;DHT22;46458;50.966;7.002;2023-07-13T11:02:25;23.70;99.90
20384;DHT22;46458;50.966;7.002;2023-07-13T11:04:56;23.80;99.90
20384;DHT22;46458;50.966;7.002;2023-07-13T11:07:30;24.00;99.90
20384;DHT22;46458;50.966;7.002;2023-07-13T11:10:04;24.00;99.90
20384;DHT22;46458;50.966;7.002;2023-07-13T11:12:53;23.60;99.90
20384;DHT22;46458;50.966;7.002;2023-07-13T11:15:43;23.10;99.90
20384;DHT22;46458;50.966;7.002;2023-07-13T11:18:23;23.10;99.90
20384;DHT22;46458;50.966;7.002;2023-07-13T11:21:12;23.00;99.90
20384;DHT22;46458;50.966;7.002;2023-07-13T11:23:42;22.90;99.90
20384;DHT22;46458;50.966;7.002;2023-07-13T11:26:39;22.70;99.90
20384;DHT22;46458;50.966;7.002;2023-07-13T11:29:25;22.70;99.90
20384;DHT22;46458;50.966;7.002;2023-07-13T11:31:57;22.70;99.90
20384;DHT22;46458;50.966;7.002;2023-07-13T11:34:30;22.60;99.90
20384;DHT22;46458;50.966;7.002;2023-07-13T11:37:00;22.80;99.90
20384;DHT22;46458;50.966;7.002;2023-07-13T11:39:34;22.90;99.90
20384;DHT22;46458;50.966;7.002;2023-07-13T11:42:06;23.00;99.90
20384;DHT22;46458;50.966;7.002;2023-07-13T11:44:43;23.00;99.90
20384;DHT22;46458;50.966;7.002;2023-07-13T11:47:17;23.10;99.90
20384;DHT22;46458;50.966;7.002;2023-07-13T11:49:49;23.00;99.90
20384;DHT22;46458;50.966;7.002;2023-07-13T11:52:21;22.80;99.90
20384;DHT22;46458;50.966;7.002;2023-07-13T11:54:55;22.90;99.90
20384;DHT22;46458;50.966;7.002;2023-07-13T11:57:29;22.70;99.90
20384;DHT22;46458;50.966;7.002;2023-07-13T12:00:04;22.60;99.90
20384;DHT22;46458;50.966;7.002;2023-07-13T12:02:35;22.70;99.90
20384;DHT22;46458;50.966;7.002;2023-07-13T12:05:05;22.90;99.90
20384;DHT22;46458;50.966;7.002;2023-07-13T12:07:35;22.90;99.90
20384;DHT22;46458;50.966;7.002;2023-07-13T12:10:18;22.80;99.90
20384;DHT22;46458;50.966;7.002;2023-07-13T12:12:48;22.80;99.90
20384;DHT22;46458;50.966;7.002;2023-07-13T12:15:20;22.80;99.90
20384;DHT22;46458;50.966;7.002;2023-07-13T12:17:52;22.50;99.90
20384;DHT22;46458;50.966;7.002;2023-07-13T12:20:25;22.60;99.90
20384;DHT22;46458;50.966;7.002;2023-07-13T12:22:54;22.70;99.90
20384;DHT22;46458;50.966;7.002;2023-07-13T12:25:24;22.60;99.90
20384;DHT22;46458;50.966;7.002;2023-07-13T12:27:53;22.50;99.90
20384;DHT22;46458;50.966;7.002;2023-07-13T12:30:28;22.50;99.90
20384;DHT22;46458;50.966;7.002;2023-07-13T12:33:00;22.50;99.90
20384;DHT22;46458;50.966;7.002;2023-07-13T12:35:30;22.50;99.90
20384;DHT22;46458;50.966;7.002;2023-07-13T12:38:01;22.70;99.90
20384;DHT22;46458;50.966;7.002;2023-07-13T12:40:33;22.90;99.90
20384;DHT22;46458;50.966;7.002;2023-07-13T12:43:03;22.90;99.90
20384;DHT22;46458;50.966;7.002;2023-07-13T12:45:35;23.10;99.90
20384;DHT22;46458;50.966;7.002;2023-07-13T12:48:06;23.10;99.90
20384;DHT22;46458;50.966;7.002;2023-07-13T12:50:45;23.30;99.90
20384;DHT22;46458;50.966;7.002;2023-07-13T12:53:18;23.70;99.90
20384;DHT22;46458;50.966;7.002;2023-07-13T12:55:50;24.20;99.90
20384;DHT22;46458;50.966;7.002;2023-07-13T12:58:26;24.70;99.90
20384;DHT22;46458;50.966;7.002;2023-07-13T13:01:01;24.80;99.90
20384;DHT22;46458;50.966;7.002;2023-07-13T13:03:32;25.10;99.90
20384;DHT22;46458;50.966;7.002;2023-07-13T13:06:03;25.30;99.90
20384;DHT22;46458;50.966;7.002;2023-07-13T13:08:34;25.70;99.90
20384;DHT22;46458;50.966;7.002;2023-07-13T13:11:03;25.90;99.90
20384;DHT22;46458;50.966;7.002;2023-07-13T13:13:32;25.90;99.90
20384;DHT22;46458;50.966;7.002;2023-07-13T13:16:09;26.00;99.90
20384;DHT22;46458;50.966;7.002;2023-07-13T13:18:41;26.00;99.90
20384;DHT22;46458;50.966;7.002;2023-07-13T13:21:13;26.20;99.90
20384;DHT22;46458;50.966;7.002;2023-07-13T13:23:43;26.00;99.90
20384;DHT22;46458;50.966;7.002;2023-07-13T13:26:14;26.10;99.90
20384;DHT22;46458;50.966;7.002;2023-07-13T13:28:44;25.70;99.90
20384;DHT22;46458;50.966;7.002;2023-07-13T13:31:16;25.80;99.90
20384;DHT22;46458;50.966;7.002;2023-07-13T13:33:45;26.00;99.90
20384;DHT22;46458;50.966;7.002;2023-07-13T13:36:15;26.00;99.90
20384;DHT22;46458;50.966;7.002;2023-07-13T13:38:48;26.50;99.90
20384;DHT22;46458;50.966;7.002;2023-07-13T13:41:17;27.20;99.90
20384;DHT22;46458;50.966;7.002;2023-07-13T13:43:46;26.80;98.80
20384;DHT22;46458;50.966;7.002;2023-07-13T13:46:20;27.30;99.20
20384;DHT22;46458;50.966;7.002;2023-07-13T13:48:51;27.90;98.80
20384;DHT22;46458;50.966;7.002;2023-07-13T13:51:22;28.40;97.80
20384;DHT22;46458;50.966;7.002;2023-07-13T13:53:52;28.20;97.20
20384;DHT22;46458;50.966;7.002;2023-07-13T13:56:21;28.60;96.80
20384;DHT22;46458;50.966;7.002;2023-07-13T13:58:53;28.20;97.30
20384;DHT22;46458;50.966;7.002;2023-07-13T14:01:27;28.80;96.80
20384;DHT22;46458;50.966;7.002;2023-07-13T14:04:00;29.70;95.30
20384;DHT22;46458;50.966;7.002;2023-07-13T14:06:30;28.20;96.40
20384;DHT22;46458;50.966;7.002;2023-07-13T14:08:59;27.60;96.70
20384;DHT22;46458;50.966;7.002;2023-07-13T14:11:31;26.80;97.80
20384;DHT22;46458;50.966;7.002;2023-07-13T14:14:08;26.90;97.60
20384;DHT22;46458;50.966;7.002;2023-07-13T14:16:53;26.60;98.10
20384;DHT22;46458;50.966;7.002;2023-07-13T14:19:55;27.80;96.50
20384;DHT22;46458;50.966;7.002;2023-07-13T14:22:57;28.80;95.60
20384;DHT22;46458;50.966;7.002;2023-07-13T14:25:25;28.90;96.40
20384;DHT22;46458;50.966;7.002;2023-07-13T14:27:57;29.10;94.80
20384;DHT22;46458;50.966;7.002;2023-07-13T14:30:30;29.30;94.20
20384;DHT22;46458;50.966;7.002;2023-07-13T14:33:07;30.20;93.30
20384;DHT22;46458;50.966;7.002;2023-07-13T14:35:36;30.60;92.20
20384;DHT22;46458;50.966;7.002;2023-07-13T14:38:09;30.40;92.80
20384;DHT22;46458;50.966;7.002;2023-07-13T14:40:40;30.90;92.40
20384;DHT22;46458;50.966;7.002;2023-07-13T14:43:10;30.50;91.70
20384;DHT22;46458;50.966;7.002;2023-07-13T14:45:41;30.20;91.80
20384;DHT22;46458;50.966;7.002;2023-07-13T14:48:18;29.60;91.90
20384;DHT22;46458;50.966;7.002;2023-07-13T14:50:49;29.00;92.60
20384;DHT22;46458;50.966;7.002;2023-07-13T14:53:19;29.20;93.20
20384;DHT22;46458;50.966;7.002;2023-07-13T14:55:48;29.10;93.40
20384;DHT22;46458;50.966;7.002;2023-07-13T14:58:17;29.00;92.60
20384;DHT22;46458;50.966;7.002;2023-07-13T15:00:46;28.50;93.70
20384;DHT22;46458;50.966;7.002;2023-07-13T15:03:21;28.50;93.80
20384;DHT22;46458;50.966;7.002;2023-07-13T15:05:51;28.50;93.40
20384;DHT22;46458;50.966;7.002;2023-07-13T15:08:20;28.10;93.60
20384;DHT22;46458;50.966;7.002;2023-07-13T15:10:49;27.40;94.00
20384;DHT22;46458;50.966;7.002;2023-07-13T15:13:21;27.40;95.20
20384;DHT22;46458;50.966;7.002;2023-07-13T15:15:51;27.30;95.00
20384;DHT22;46458;50.966;7.002;2023-07-13T15:18:25;27.30;95.50
20384;DHT22;46458;50.966;7.002;2023-07-13T15:20:54;27.80;94.30
20384;DHT22;46458;50.966;7.002;2023-07-13T15:23:34;27.90;93.80
20384;DHT22;46458;50.966;7.002;2023-07-13T15:26:03;28.80;91.60
20384;DHT22;46458;50.966;7.002;2023-07-13T15:28:32;28.70;91.20
20384;DHT22;46458;50.966;7.002;2023-07-13T15:31:20;28.90;91.70
20384;DHT22;46458;50.966;7.002;2023-07-13T15:33:53;29.20;92.00
20384;DHT22;46458;50.966;7.002;2023-07-13T15:36:24;28.20;92.30
20384;DHT22;46458;50.966;7.002;2023-07-13T15:38:54;28.30;93.00
20384;DHT22;46458;50.966;7.002;2023-07-13T15:41:25;28.40;93.00
20384;DHT22;46458;50.966;7.002;2023-07-13T15:43:58;27.70;93.30
20384;DHT22;46458;50.966;7.002;2023-07-13T15:46:28;27.40;93.70
20384;DHT22;46458;50.966;7.002;2023-07-13T15:49:00;26.80;95.00
20384;DHT22;46458;50.966;7.002;2023-07-13T15:51:30;26.60;95.00
20384;DHT22;46458;50.966;7.002;2023-07-13T15:54:03;26.60;95.30
20384;DHT22;46458;50.966;7.002;2023-07-13T15:56:36;26.50;95.80
20384;DHT22;46458;50.966;7.002;2023-07-13T15:59:09;25.90;96.00
20384;DHT22;46458;50.966;7.002;2023-07-13T16:01:40;25.50;96.50